Time;durP1;ratioP1;P1;durP2;ratioP2;P2;SDS_P1;SDS_P2;PMS_P1;PMS_P2;Temp;Humidity;BMP_temperature;BMP_pressure;BME280_temperature;BME280_humidity;BME280_pressure;Samples;Min_cycle;Max_cycle;Signal;HPM_P1;HPM_P2
2024/01/15 18:59:08;;;;;;;74.95;40.13;;;;;;;;;;5054826;27;91912;-75
2024/01/15 19:01:36;;;;;;;68.20;36.83;;;;;;;;;;5072482;27;92176;-74
2024/01/15 19:04:02;;;;;;;61.05;33.15;;;;;;;;;;5072728;27;92320;-74
2024/01/15 19:06:29;;;;;;;57.60;30.58;;;;;;;;;;5072413;27;92108;-75
2024/01/15 19:08:55;;;;;;;55.95;30.02;;;;;;;;;;5072824;27;92068;-75
2024/01/15 19:11:22;;;;;;;47.15;25.95;;;;;;;;;;5072390;27;92421;-75
2024/01/15 19:13:49;;;;;;;50.58;26.75;;;;;;;;;;5072573;27;91863;-75
2024/01/15 19:16:21;;;;;;;41.60;21.08;;;;;;;;;;5072215;27;92094;-73
2024/01/15 19:18:51;;;;;;;39.40;22.98;;;;;;;;;;5075657;27;91985;-75
2024/01/15 19:21:17;;;;;;;37.83;21.15;;;;;;;;;;5071713;27;92831;-75
2024/01/15 19:23:44;;;;;;;34.47;19.10;;;;;;;;;;5071482;27;91839;-74
2024/01/15 19:26:17;;;;;;;34.92;18.02;;;;;;;;;;5037117;27;93272;-75
2024/01/15 19:28:44;;;;;;;29.25;17.77;;;;;;;;;;5054061;27;91902;-75
2024/01/15 19:31:10;;;;;;;25.90;15.57;;;;;;;;;;5071717;27;92270;-75
2024/01/15 19:33:37;;;;;;;31.55;15.55;;;;;;;;;;5053516;27;91994;-76
2024/01/15 19:36:04;;;;;;;30.88;14.57;;;;;;;;;;5052887;27;92169;-75
2024/01/15 19:38:30;;;;;;;22.77;13.50;;;;;;;;;;5070624;27;91753;-74
2024/01/15 19:40:57;;;;;;;24.58;13.07;;;;;;;;;;5054765;27;92217;-73
2024/01/15 19:43:23;;;;;;;23.58;12.10;;;;;;;;;;5071701;27;92038;-74
2024/01/15 19:45:50;;;;;;;22.45;10.35;;;;;;;;;;5071996;27;92024;-73
2024/01/15 19:48:17;;;;;;;17.77;10.63;;;;;;;;;;5071881;27;92024;-73
2024/01/15 19:50:44;;;;;;;20.88;11.15;;;;;;;;;;5071834;27;92201;-74
2024/01/15 19:53:11;;;;;;;20.25;10.13;;;;;;;;;;5072279;27;92284;-73
2024/01/15 19:55:38;;;;;;;15.65;9.63;;;;;;;;;;5071237;27;92795;-75
2024/01/15 19:58:04;;;;;;;20.20;9.80;;;;;;;;;;5057952;27;91966;-72
2024/01/15 20:00:31;;;;;;;19.25;11.30;;;;;;;;;;5069676;27;91933;-71
2024/01/15 20:02:57;;;;;;;26.10;16.50;;;;;;;;;;5056827;27;92038;-73
2024/01/15 20:05:24;;;;;;;24.27;14.30;;;;;;;;;;5071469;27;92104;-72
2024/01/15 20:07:50;;;;;;;19.23;14.40;;;;;;;;;;5069173;27;92822;-72
2024/01/15 20:10:17;;;;;;;26.00;14.45;;;;;;;;;;5058517;27;92276;-72
2024/01/15 20:12:44;;;;;;;26.42;14.93;;;;;;;;;;5057300;27;91958;-74
2024/01/15 20:15:10;;;;;;;19.02;12.50;;;;;;;;;;5056849;27;93087;-73
2024/01/15 20:17:37;;;;;;;15.07;10.30;;;;;;;;;;5057506;27;92035;-73
2024/01/15 20:20:09;;;;;;;19.42;10.10;;;;;;;;;;5057066;27;92045;-73
2024/01/15 20:22:38;;;;;;;16.20;9.65;;;;;;;;;;5057082;27;92951;-73
2024/01/15 20:25:07;;;;;;;13.68;8.77;;;;;;;;;;5060398;27;92043;-74
2024/01/15 20:27:33;;;;;;;15.23;7.13;;;;;;;;;;5057576;27;92604;-72
2024/01/15 20:30:04;;;;;;;11.35;6.78;;;;;;;;;;5057866;27;91826;-72
2024/01/15 20:32:32;;;;;;;12.38;6.95;;;;;;;;;;5057959;27;91931;-72
2024/01/15 20:34:59;;;;;;;12.02;6.50;;;;;;;;;;5056712;27;92356;-71
2024/01/15 20:37:26;;;;;;;8.25;5.80;;;;;;;;;;5058712;27;92291;-72
2024/01/15 20:39:53;;;;;;;10.52;6.22;;;;;;;;;;5032728;27;94534;-73
2024/01/15 20:42:19;;;;;;;11.65;5.22;;;;;;;;;;5057564;27;94009;-73
2024/01/15 20:44:46;;;;;;;10.73;5.40;;;;;;;;;;5057366;27;92116;-74
2024/01/15 20:47:12;;;;;;;8.27;4.63;;;;;;;;;;5060427;27;91632;-71
2024/01/15 20:49:39;;;;;;;10.60;4.43;;;;;;;;;;5057330;27;92284;-72
2024/01/15 20:52:06;;;;;;;8.38;3.83;;;;;;;;;;5057605;27;92063;-73
2024/01/15 20:54:32;;;;;;;4.75;4.00;;;;;;;;;;5057807;27;92975;-74
2024/01/15 20:57:01;;;;;;;8.77;4.03;;;;;;;;;;5038720;27;92131;-72
2024/01/15 20:59:27;;;;;;;6.22;4.22;;;;;;;;;;5038192;27;91961;-75
2024/01/15 21:01:54;;;;;;;6.03;3.75;;;;;;;;;;5036678;27;92958;-74
2024/01/15 21:04:22;;;;;;;8.23;3.58;;;;;;;;;;5057787;27;92010;-73
2024/01/15 21:06:48;;;;;;;6.45;3.22;;;;;;;;;;5057513;27;92114;-73
2024/01/15 21:09:14;;;;;;;6.63;3.30;;;;;;;;;;5057073;27;92157;-73
2024/01/15 21:11:41;;;;;;;6.60;3.15;;;;;;;;;;5057479;27;92338;-73
2024/01/15 21:14:08;;;;;;;6.65;3.50;;;;;;;;;;5057242;27;93968;-73
2024/01/15 21:16:34;;;;;;;8.52;2.97;;;;;;;;;;5057633;27;91963;-74
2024/01/15 21:19:01;;;;;;;8.27;3.05;;;;;;;;;;5057804;27;92120;-73
2024/01/15 21:21:28;;;;;;;5.38;3.05;;;;;;;;;;5038590;27;92885;-73
2024/01/15 21:23:55;;;;;;;7.07;2.70;;;;;;;;;;5057227;27;91594;-74
2024/01/15 21:26:21;;;;;;;6.57;2.63;;;;;;;;;;5057321;27;92264;-73
2024/01/15 21:28:48;;;;;;;8.73;2.17;;;;;;;;;;5060307;27;92024;-73
2024/01/15 21:31:14;;;;;;;4.47;2.40;;;;;;;;;;5057185;27;91867;-74
2024/01/15 21:33:45;;;;;;;9.52;3.75;;;;;;;;;;5057427;27;92940;-74
2024/01/15 21:36:12;;;;;;;4.80;2.33;;;;;;;;;;5058130;27;92205;-74
2024/01/15 21:38:39;;;;;;;6.07;2.17;;;;;;;;;;5058103;27;92064;-73
2024/01/15 21:41:06;;;;;;;7.95;3.15;;;;;;;;;;5038474;27;92008;-73
2024/01/15 21:43:32;;;;;;;4.63;2.72;;;;;;;;;;5039280;27;91522;-74
2024/01/15 21:46:00;;;;;;;5.47;2.20;;;;;;;;;;5056773;27;92348;-74
2024/01/15 21:48:27;;;;;;;10.98;2.50;;;;;;;;;;5056556;27;94051;-74
2024/01/15 21:50:54;;;;;;;17.67;3.40;;;;;;;;;;5042199;27;92551;-74
2024/01/15 21:53:20;;;;;;;8.50;2.05;;;;;;;;;;5055924;27;92722;-74
2024/01/15 21:55:47;;;;;;;4.38;2.13;;;;;;;;;;5056778;27;92348;-74
2024/01/15 21:58:13;;;;;;;9.15;1.90;;;;;;;;;;5056731;27;93298;-75
2024/01/15 22:00:40;;;;;;;4.22;1.85;;;;;;;;;;5037413;27;93789;-74
2024/01/15 22:03:06;;;;;;;7.90;2.03;;;;;;;;;;5057297;27;92190;-74
2024/01/15 22:05:33;;;;;;;5.55;2.40;;;;;;;;;;5056866;27;91778;-75
2024/01/15 22:08:00;;;;;;;5.97;2.45;;;;;;;;;;5056385;27;92108;-75
2024/01/15 22:10:27;;;;;;;4.93;1.30;;;;;;;;;;5057064;27;91953;-74
2024/01/15 22:12:53;;;;;;;8.75;1.80;;;;;;;;;;5059851;27;92210;-74
2024/01/15 22:15:20;;;;;;;3.63;1.65;;;;;;;;;;5056755;27;92232;-75
2024/01/15 22:17:46;;;;;;;3.20;1.70;;;;;;;;;;5056397;27;91998;-74
2024/01/15 22:20:13;;;;;;;3.42;2.20;;;;;;;;;;5038273;27;92864;-75
2024/01/15 22:22:42;;;;;;;4.95;1.90;;;;;;;;;;5056590;27;92086;-74
2024/01/15 22:25:11;;;;;;;6.95;1.67;;;;;;;;;;5045404;27;92153;-74
2024/01/15 22:27:38;;;;;;;2.60;1.60;;;;;;;;;;5056581;27;92086;-74
2024/01/15 22:30:05;;;;;;;5.55;1.83;;;;;;;;;;5036806;27;92747;-75
2024/01/15 22:32:31;;;;;;;3.38;1.67;;;;;;;;;;5056239;27;92825;-75
2024/01/15 22:34:58;;;;;;;4.10;1.70;;;;;;;;;;5040880;27;94142;-75
2024/01/15 22:37:25;;;;;;;2.88;1.50;;;;;;;;;;5056687;27;92037;-74
2024/01/15 22:39:51;;;;;;;3.58;1.52;;;;;;;;;;5036365;27;93965;-75
2024/01/15 22:42:18;;;;;;;3.03;1.73;;;;;;;;;;5056742;27;91915;-75
2024/01/15 22:44:45;;;;;;;5.95;1.60;;;;;;;;;;5055925;27;92091;-74
2024/01/15 22:47:12;;;;;;;2.85;1.25;;;;;;;;;;5056430;27;92800;-74
2024/01/15 22:49:38;;;;;;;4.30;1.35;;;;;;;;;;5034312;27;92157;-74
2024/01/15 22:52:05;;;;;;;4.72;1.77;;;;;;;;;;5056649;27;91904;-74
2024/01/15 22:54:32;;;;;;;4.43;1.42;;;;;;;;;;5036887;27;92213;-75
2024/01/15 22:56:58;;;;;;;3.35;1.13;;;;;;;;;;5059086;27;92196;-74
2024/01/15 22:59:25;;;;;;;6.55;1.73;;;;;;;;;;5055867;27;92889;-74
2024/01/15 23:01:51;;;;;;;1.13;1.10;;;;;;;;;;5056564;27;91970;-75
2024/01/15 23:04:18;;;;;;;3.10;1.13;;;;;;;;;;5054993;27;92445;-74
2024/01/15 23:06:45;;;;;;;2.67;1.38;;;;;;;;;;5054776;27;93062;-74
2024/01/15 23:09:11;;;;;;;1.58;1.35;;;;;;;;;;5055009;27;92554;-74
2024/01/15 23:11:38;;;;;;;2.22;1.30;;;;;;;;;;5054728;27;92604;-74
2024/01/15 23:14:04;;;;;;;4.72;1.30;;;;;;;;;;5035705;27;92594;-74
2024/01/15 23:16:31;;;;;;;5.88;1.10;;;;;;;;;;5056883;27;92039;-74
2024/01/15 23:18:57;;;;;;;2.35;1.05;;;;;;;;;;5045026;27;93125;-74
2024/01/15 23:21:26;;;;;;;2.90;1.50;;;;;;;;;;5035315;27;91922;-74
2024/01/15 23:23:53;;;;;;;6.95;1.13;;;;;;;;;;5035014;27;92542;-74
2024/01/15 23:26:20;;;;;;;2.42;1.27;;;;;;;;;;5026253;27;92708;-74
2024/01/15 23:28:46;;;;;;;2.35;1.30;;;;;;;;;;5035828;27;92336;-74
2024/01/15 23:31:13;;;;;;;6.25;1.20;;;;;;;;;;5035592;27;92991;-74
2024/01/15 23:33:39;;;;;;;1.88;1.17;;;;;;;;;;5052667;27;93111;-74
2024/01/15 23:36:07;;;;;;;3.03;1.10;;;;;;;;;;5054282;27;92745;-73
2024/01/15 23:38:35;;;;;;;2.25;1.10;;;;;;;;;;5057051;27;92633;-75
2024/01/15 23:41:03;;;;;;;1.40;1.20;;;;;;;;;;5055454;27;91939;-74
2024/01/15 23:43:30;;;;;;;3.28;1.13;;;;;;;;;;5037885;27;92833;-74
2024/01/15 23:45:57;;;;;;;3.35;1.25;;;;;;;;;;5061941;27;92999;-74
2024/01/15 23:48:39;;;;;;;2.75;1.40;;;;;;;;;;5063641;27;92207;-74
2024/01/15 23:51:06;;;;;;;4.10;1.85;;;;;;;;;;5040242;27;93742;-73
2024/01/15 23:53:32;;;;;;;4.25;2.22;;;;;;;;;;5058672;27;92903;-74
2024/01/15 23:55:59;;;;;;;2.20;1.17;;;;;;;;;;5046689;27;92065;-73
2024/01/15 23:58:25;;;;;;;4.72;1.15;;;;;;;;;;5058513;27;92010;-74
